Time;durP1;ratioP1;P1;durP2;ratioP2;P2;SDS_P1;SDS_P2;PMS_P1;PMS_P2;Temp;Humidity;BMP_temperature;BMP_pressure;BME280_temperature;BME280_humidity;BME280_pressure;Samples;Min_cycle;Max_cycle;Signal;HPM_P1;HPM_P2
2023/02/15 00:00:23;;;;;;;;;;;0.80;99.90;;;;;;5088326;28;19912;-80
2023/02/15 00:02:49;;;;;;;;;;;0.80;99.90;;;;;;5082975;28;19928;-81
2023/02/15 00:05:15;;;;;;;;;;;0.80;99.90;;;;;;5086457;28;19916;-81
2023/02/15 00:07:41;;;;;;;;;;;0.80;99.90;;;;;;5085450;28;19916;-80
2023/02/15 00:10:07;;;;;;;;;;;0.70;99.90;;;;;;5074602;28;20315;-80
2023/02/15 00:12:33;;;;;;;;;;;0.70;99.90;;;;;;5081292;28;19934;-79
2023/02/15 00:14:59;;;;;;;;;;;0.80;99.90;;;;;;5075519;28;19912;-80
2023/02/15 00:17:27;;;;;;;;;;;0.80;99.90;;;;;;5095875;28;20003;-81
2023/02/15 00:19:53;;;;;;;;;;;0.80;99.90;;;;;;5078703;28;19923;-80
2023/02/15 00:22:19;;;;;;;;;;;0.80;99.90;;;;;;5080796;28;19912;-80
2023/02/15 00:24:45;;;;;;;;;;;0.80;99.90;;;;;;5085620;28;19912;-80
2023/02/15 00:27:11;;;;;;;;;;;0.80;99.90;;;;;;5091984;28;19993;-80
2023/02/15 00:29:38;;;;;;;;;;;0.80;99.90;;;;;;5092137;28;19931;-79
2023/02/15 00:32:04;;;;;;;;;;;0.80;99.90;;;;;;5088379;28;19916;-80
2023/02/15 00:34:30;;;;;;;;;;;0.80;99.90;;;;;;5081889;28;20011;-79
2023/02/15 00:36:56;;;;;;;;;;;0.80;99.90;;;;;;5082038;28;19905;-79
2023/02/15 00:39:23;;;;;;;;;;;0.80;99.90;;;;;;5081024;28;19913;-80
2023/02/15 00:41:49;;;;;;;;;;;0.70;99.90;;;;;;5083241;28;19920;-79
2023/02/15 00:44:15;;;;;;;;;;;0.70;99.90;;;;;;5082948;28;19960;-80
2023/02/15 00:46:41;;;;;;;;;;;0.70;99.90;;;;;;5086319;28;19916;-79
2023/02/15 00:49:09;;;;;;;;;;;0.80;99.90;;;;;;5087001;28;19923;-79
2023/02/15 00:51:35;;;;;;;;;;;0.80;99.90;;;;;;5090996;28;20380;-79
2023/02/15 00:54:01;;;;;;;;;;;0.80;99.90;;;;;;5082092;28;19912;-79
2023/02/15 00:56:29;;;;;;;;;;;0.80;99.90;;;;;;5083363;28;20265;-80
2023/02/15 00:58:55;;;;;;;;;;;0.80;99.90;;;;;;5089820;28;20019;-79
2023/02/15 01:01:21;;;;;;;;;;;0.70;99.90;;;;;;5087031;28;19927;-80
2023/02/15 01:03:47;;;;;;;;;;;0.80;99.90;;;;;;5087979;28;20289;-80
2023/02/15 01:06:14;;;;;;;;;;;0.70;99.90;;;;;;5085282;28;19912;-80
2023/02/15 01:08:43;;;;;;;;;;;0.70;99.90;;;;;;5081220;28;20376;-80
2023/02/15 01:11:10;;;;;;;;;;;0.70;99.90;;;;;;5084733;28;19934;-80
2023/02/15 01:13:36;;;;;;;;;;;0.70;99.90;;;;;;5081800;28;20226;-79
2023/02/15 01:16:02;;;;;;;;;;;0.70;99.90;;;;;;5093334;28;20383;-80
2023/02/15 01:18:28;;;;;;;;;;;0.80;99.90;;;;;;5083868;28;19912;-79
2023/02/15 01:20:54;;;;;;;;;;;0.70;99.90;;;;;;5093872;28;20478;-80
2023/02/15 01:23:20;;;;;;;;;;;0.70;99.90;;;;;;5090296;28;19912;-80
2023/02/15 01:25:46;;;;;;;;;;;0.70;99.90;;;;;;5078366;28;19923;-79
2023/02/15 01:28:13;;;;;;;;;;;0.80;99.90;;;;;;5084053;28;19923;-80
2023/02/15 01:30:39;;;;;;;;;;;0.80;99.90;;;;;;5079102;28;19913;-79
2023/02/15 01:33:05;;;;;;;;;;;0.80;99.90;;;;;;5117781;27;19927;-79
2023/02/15 01:35:31;;;;;;;;;;;0.70;99.90;;;;;;5089592;28;20342;-80
2023/02/15 01:37:57;;;;;;;;;;;0.70;99.90;;;;;;5088333;28;19909;-80
2023/02/15 01:40:24;;;;;;;;;;;0.70;99.90;;;;;;5083500;28;19912;-80
2023/02/15 01:42:50;;;;;;;;;;;0.70;99.90;;;;;;5082718;28;20357;-80
2023/02/15 01:45:21;;;;;;;;;;;0.70;99.90;;;;;;5097763;27;19920;-80
2023/02/15 01:47:53;;;;;;;;;;;0.70;99.90;;;;;;5082202;28;19927;-79
2023/02/15 01:50:46;;;;;;;;;;;0.70;99.90;;;;;;5084364;28;19916;-80
2023/02/15 01:53:18;;;;;;;;;;;0.60;99.90;;;;;;5081489;28;19919;-79
2023/02/15 01:55:46;;;;;;;;;;;0.60;99.90;;;;;;5084164;28;19956;-79
2023/02/15 01:58:14;;;;;;;;;;;0.60;99.90;;;;;;5090134;28;19923;-80
2023/02/15 02:00:40;;;;;;;;;;;0.70;99.90;;;;;;5096217;28;20305;-79
2023/02/15 02:03:06;;;;;;;;;;;0.70;99.90;;;;;;5091212;28;20365;-80
2023/02/15 02:05:33;;;;;;;;;;;0.60;99.90;;;;;;5095591;28;19912;-79
2023/02/15 02:08:00;;;;;;;;;;;0.60;99.90;;;;;;5090568;28;19916;-79
2023/02/15 02:10:27;;;;;;;;;;;0.60;99.90;;;;;;5083003;28;19931;-80
2023/02/15 02:13:00;;;;;;;;;;;0.60;99.90;;;;;;5111020;27;19920;-80
2023/02/15 02:15:31;;;;;;;;;;;0.70;99.90;;;;;;5082722;28;19917;-80
2023/02/15 02:18:13;;;;;;;;;;;0.70;99.90;;;;;;5089687;28;19913;-80
2023/02/15 02:20:50;;;;;;;;;;;0.70;99.90;;;;;;5079210;28;19912;-80
2023/02/15 02:23:22;;;;;;;;;;;0.60;99.90;;;;;;5088582;28;19913;-79
2023/02/15 02:26:03;;;;;;;;;;;0.60;99.90;;;;;;5066793;28;19967;-80
2023/02/15 02:28:54;;;;;;;;;;;0.60;99.90;;;;;;5090281;28;20365;-79
2023/02/15 02:31:35;;;;;;;;;;;0.60;99.90;;;;;;5072599;28;19923;-80
2023/02/15 02:34:10;;;;;;;;;;;0.60;99.90;;;;;;5074265;28;19919;-80
2023/02/15 02:36:56;;;;;;;;;;;0.70;99.90;;;;;;5079631;28;19912;-80
2023/02/15 02:39:30;;;;;;;;;;;0.70;99.90;;;;;;5072946;28;19920;-80
2023/02/15 02:42:09;;;;;;;;;;;0.70;99.90;;;;;;5092491;28;19916;-80
2023/02/15 02:44:42;;;;;;;;;;;0.70;99.90;;;;;;5084024;28;19931;-80
2023/02/15 02:47:14;;;;;;;;;;;0.70;99.90;;;;;;5080620;28;19916;-81
2023/02/15 02:49:41;;;;;;;;;;;0.70;99.90;;;;;;5080118;28;19917;-80
2023/02/15 02:52:27;;;;;;;;;;;0.70;99.90;;;;;;5090933;28;20281;-80
2023/02/15 02:54:54;;;;;;;;;;;0.70;99.90;;;;;;5078941;28;20277;-80
2023/02/15 02:57:22;;;;;;;;;;;0.70;99.90;;;;;;5081595;28;19935;-80
2023/02/15 02:59:49;;;;;;;;;;;0.60;99.90;;;;;;5108558;27;19913;-80
2023/02/15 03:02:26;;;;;;;;;;;0.70;99.90;;;;;;5091996;28;19924;-80
2023/02/15 03:04:58;;;;;;;;;;;0.70;99.90;;;;;;5086601;28;19922;-80
2023/02/15 03:07:28;;;;;;;;;;;0.60;99.90;;;;;;5090384;28;19928;-81
2023/02/15 03:09:56;;;;;;;;;;;0.70;99.90;;;;;;5092361;28;20411;-80
2023/02/15 03:12:26;;;;;;;;;;;0.60;99.90;;;;;;5084556;28;19920;-80
2023/02/15 03:14:57;;;;;;;;;;;0.60;99.90;;;;;;5090439;28;19979;-80
2023/02/15 03:17:25;;;;;;;;;;;0.70;99.90;;;;;;5079067;28;19920;-80
2023/02/15 03:19:54;;;;;;;;;;;0.70;99.90;;;;;;5080768;28;20357;-80
2023/02/15 03:22:23;;;;;;;;;;;0.70;99.90;;;;;;5081421;28;19912;-80
2023/02/15 03:24:49;;;;;;;;;;;0.70;99.90;;;;;;5081233;28;19920;-80
2023/02/15 03:27:19;;;;;;;;;;;0.70;99.90;;;;;;5081991;28;19913;-80
2023/02/15 03:29:47;;;;;;;;;;;0.70;99.90;;;;;;5087074;28;19916;-80
2023/02/15 03:32:14;;;;;;;;;;;0.70;99.90;;;;;;5081525;28;19930;-80
2023/02/15 03:34:40;;;;;;;;;;;0.70;99.90;;;;;;5088061;28;19983;-80
2023/02/15 03:37:22;;;;;;;;;;;0.70;99.90;;;;;;5088166;28;19919;-81
2023/02/15 03:39:52;;;;;;;;;;;0.70;99.90;;;;;;5083160;28;19920;-80
2023/02/15 03:42:24;;;;;;;;;;;0.80;99.90;;;;;;5084207;28;20362;-80
2023/02/15 03:45:09;;;;;;;;;;;0.70;99.90;;;;;;5089768;28;19912;-80
2023/02/15 03:47:40;;;;;;;;;;;0.70;99.90;;;;;;5082090;28;19931;-80
2023/02/15 03:53:01;;;;;;;;;;;0.70;99.90;;;;;;5088217;28;19913;-81
2023/02/15 03:55:27;;;;;;;;;;;0.70;99.90;;;;;;5086432;28;19908;-80
2023/02/15 04:03:39;;;;;;;;;;;0.70;99.90;;;;;;5079963;28;19920;-81
2023/02/15 04:06:05;;;;;;;;;;;0.70;99.90;;;;;;5077904;28;19916;-81
2023/02/15 04:11:15;;;;;;;;;;;0.70;99.90;;;;;;5087503;28;19916;-81
2023/02/15 04:13:41;;;;;;;;;;;0.70;99.90;;;;;;5088681;28;19908;-81
2023/02/15 04:16:07;;;;;;;;;;;0.70;99.90;;;;;;5094995;28;20068;-81
2023/02/15 04:26:52;;;;;;;;;;;0.70;99.90;;;;;;5094523;28;19917;-81
2023/02/15 04:29:22;;;;;;;;;;;0.70;99.90;;;;;;5086177;28;19966;-81
2023/02/15 04:31:48;;;;;;;;;;;0.70;99.90;;;;;;5089195;28;19967;-82
2023/02/15 04:34:14;;;;;;;;;;;0.80;99.90;;;;;;5095382;28;19927;-81
2023/02/15 04:36:40;;;;;;;;;;;0.70;99.90;;;;;;5095671;28;19982;-81
2023/02/15 04:39:07;;;;;;;;;;;0.80;99.90;;;;;;5093161;28;19916;-81
2023/02/15 04:41:33;;;;;;;;;;;0.80;99.90;;;;;;5086361;28;19912;-82
2023/02/15 04:44:00;;;;;;;;;;;0.80;99.90;;;;;;5093354;28;19912;-82
2023/02/15 04:46:27;;;;;;;;;;;0.70;99.90;;;;;;5095722;28;19917;-83
2023/02/15 04:48:53;;;;;;;;;;;0.80;99.90;;;;;;5084433;28;19916;-83
2023/02/15 04:51:19;;;;;;;;;;;0.80;99.90;;;;;;5123235;27;20389;-82
2023/02/15 04:53:45;;;;;;;;;;;0.80;99.90;;;;;;5125234;27;19916;-81
2023/02/15 04:56:11;;;;;;;;;;;0.80;99.90;;;;;;5121450;27;20072;-82
2023/02/15 04:58:40;;;;;;;;;;;0.80;99.90;;;;;;5083406;28;19908;-83
2023/02/15 05:01:07;;;;;;;;;;;0.70;99.90;;;;;;5078221;28;19971;-83
2023/02/15 05:03:33;;;;;;;;;;;0.80;99.90;;;;;;5087373;28;20359;-83
2023/02/15 05:05:59;;;;;;;;;;;0.80;99.90;;;;;;5092686;28;19913;-76
2023/02/15 05:08:25;;;;;;;;;;;0.80;99.90;;;;;;5082503;28;19942;-81
2023/02/15 05:10:51;;;;;;;;;;;0.70;99.90;;;;;;5092477;28;19916;-83
2023/02/15 05:13:17;;;;;;;;;;;0.80;99.90;;;;;;5088985;28;19919;-82
2023/02/15 05:15:47;;;;;;;;;;;0.70;99.90;;;;;;5094372;28;19932;-81
2023/02/15 05:18:12;;;;;;;;;;;0.80;99.90;;;;;;5095855;28;20254;-82
2023/02/15 05:20:38;;;;;;;;;;;0.80;99.90;;;;;;5078040;28;19966;-82
2023/02/15 05:23:04;;;;;;;;;;;0.70;99.90;;;;;;5091769;28;19952;-81
2023/02/15 05:28:21;;;;;;;;;;;0.70;99.90;;;;;;5137838;27;19915;-84
2023/02/15 05:30:48;;;;;;;;;;;0.70;99.90;;;;;;5073980;28;19923;-84
2023/02/15 05:33:14;;;;;;;;;;;0.70;99.90;;;;;;5101722;28;19916;-84
2023/02/15 05:35:40;;;;;;;;;;;0.60;99.90;;;;;;5095261;28;20256;-83
2023/02/15 05:38:06;;;;;;;;;;;0.60;99.90;;;;;;5094119;28;19908;-82
2023/02/15 05:40:32;;;;;;;;;;;0.60;99.90;;;;;;5094368;28;20024;-83
2023/02/15 05:42:58;;;;;;;;;;;0.60;99.90;;;;;;5093525;28;20292;-85
2023/02/15 05:45:24;;;;;;;;;;;0.60;99.90;;;;;;5087734;28;19955;-84
2023/02/15 05:47:50;;;;;;;;;;;0.60;99.90;;;;;;5078370;28;19912;-85
2023/02/15 05:50:16;;;;;;;;;;;0.60;99.90;;;;;;5088018;28;20406;-83
2023/02/15 05:52:46;;;;;;;;;;;0.60;99.90;;;;;;5083745;28;19919;-85
2023/02/15 05:55:12;;;;;;;;;;;0.50;99.90;;;;;;5094333;28;20232;-85
2023/02/15 05:57:38;;;;;;;;;;;0.60;99.90;;;;;;5099332;28;20270;-86
2023/02/15 06:00:04;;;;;;;;;;;0.60;99.90;;;;;;5096984;28;19922;-85
2023/02/15 06:02:37;;;;;;;;;;;0.60;99.90;;;;;;5115608;28;19931;-84
2023/02/15 06:05:04;;;;;;;;;;;0.60;99.90;;;;;;5103887;28;19912;-84
2023/02/15 06:07:30;;;;;;;;;;;0.60;99.90;;;;;;5104124;28;19915;-83
2023/02/15 06:09:59;;;;;;;;;;;0.60;99.90;;;;;;5109061;27;19917;-86
2023/02/15 06:12:25;;;;;;;;;;;0.60;99.90;;;;;;5101663;28;20391;-86
2023/02/15 06:14:51;;;;;;;;;;;0.60;99.90;;;;;;5123349;27;19908;-77
2023/02/15 06:17:17;;;;;;;;;;;0.60;99.90;;;;;;5076486;28;20003;-77
2023/02/15 06:19:43;;;;;;;;;;;0.60;99.90;;;;;;5079880;28;19912;-77
2023/02/15 06:22:09;;;;;;;;;;;0.70;99.90;;;;;;5090724;28;19958;-77
2023/02/15 06:24:35;;;;;;;;;;;0.70;99.90;;;;;;5081641;28;20392;-78
2023/02/15 06:27:01;;;;;;;;;;;0.70;99.90;;;;;;5095630;28;19912;-77
2023/02/15 06:29:27;;;;;;;;;;;0.70;99.90;;;;;;5078712;28;19912;-77
2023/02/15 06:31:53;;;;;;;;;;;0.70;99.90;;;;;;5073316;28;19912;-77
2023/02/15 06:34:19;;;;;;;;;;;0.70;99.90;;;;;;5088390;28;19978;-77
2023/02/15 06:36:45;;;;;;;;;;;0.70;99.90;;;;;;5089282;28;19924;-77
2023/02/15 06:39:10;;;;;;;;;;;0.70;99.90;;;;;;5079377;28;19916;-77
2023/02/15 06:41:36;;;;;;;;;;;0.80;99.90;;;;;;5102154;27;19919;-77
2023/02/15 06:44:03;;;;;;;;;;;0.80;99.90;;;;;;5099885;27;20381;-77
2023/02/15 06:46:29;;;;;;;;;;;0.90;99.90;;;;;;5089120;28;20285;-77
2023/02/15 06:48:55;;;;;;;;;;;0.90;99.90;;;;;;5076971;28;20378;-77
2023/02/15 06:51:20;;;;;;;;;;;1.00;99.90;;;;;;5082203;28;19926;-77
2023/02/15 06:53:46;;;;;;;;;;;1.00;99.90;;;;;;5113204;27;19912;-77
2023/02/15 06:56:12;;;;;;;;;;;1.00;99.90;;;;;;5090706;28;20865;-78
2023/02/15 06:58:39;;;;;;;;;;;1.10;99.90;;;;;;5090773;28;19909;-77
2023/02/15 07:01:05;;;;;;;;;;;1.10;99.90;;;;;;5081106;28;19921;-77
2023/02/15 07:03:32;;;;;;;;;;;1.10;99.90;;;;;;5094050;28;19916;-76
2023/02/15 07:05:58;;;;;;;;;;;1.10;99.90;;;;;;5078159;28;19920;-77
2023/02/15 07:08:25;;;;;;;;;;;1.10;99.90;;;;;;5088449;28;19927;-77
2023/02/15 07:10:51;;;;;;;;;;;1.10;99.90;;;;;;5085773;28;19923;-77
2023/02/15 07:13:18;;;;;;;;;;;1.10;99.90;;;;;;5088439;28;19935;-76
2023/02/15 07:15:44;;;;;;;;;;;1.10;99.90;;;;;;5079565;28;19919;-77
2023/02/15 07:18:10;;;;;;;;;;;1.00;99.90;;;;;;5077743;28;19939;-77
2023/02/15 07:20:36;;;;;;;;;;;1.00;99.90;;;;;;5089597;28;20015;-77
2023/02/15 07:23:03;;;;;;;;;;;1.00;99.90;;;;;;5095170;28;20370;-77
2023/02/15 07:25:30;;;;;;;;;;;1.00;99.90;;;;;;5087912;28;19912;-77
2023/02/15 07:27:57;;;;;;;;;;;1.00;99.90;;;;;;5081814;28;19920;-77
2023/02/15 07:30:23;;;;;;;;;;;1.00;99.90;;;;;;5108591;27;19916;-77
2023/02/15 07:35:34;;;;;;;;;;;1.00;99.90;;;;;;5087794;28;19916;-77
2023/02/15 07:38:00;;;;;;;;;;;1.00;99.90;;;;;;5075103;28;20007;-77
2023/02/15 07:40:26;;;;;;;;;;;1.00;99.90;;;;;;5090271;28;19912;-77
2023/02/15 07:42:54;;;;;;;;;;;1.00;99.90;;;;;;5085071;28;19912;-78
2023/02/15 07:45:21;;;;;;;;;;;1.00;99.90;;;;;;5084792;28;19978;-77
2023/02/15 07:47:47;;;;;;;;;;;1.10;99.90;;;;;;5090349;28;19916;-77
2023/02/15 07:50:13;;;;;;;;;;;1.00;99.90;;;;;;5086434;28;20304;-77
2023/02/15 07:52:39;;;;;;;;;;;1.00;99.90;;;;;;5093527;28;19912;-77
2023/02/15 07:55:05;;;;;;;;;;;1.10;99.90;;;;;;5090119;28;20006;-77
2023/02/15 07:57:31;;;;;;;;;;;1.10;99.90;;;;;;5092166;28;19912;-77
2023/02/15 07:59:57;;;;;;;;;;;1.10;99.90;;;;;;5083663;28;20003;-77
2023/02/15 08:02:23;;;;;;;;;;;1.20;99.90;;;;;;5082842;28;19920;-77
2023/02/15 08:04:49;;;;;;;;;;;1.20;99.90;;;;;;5094184;28;19964;-77
2023/02/15 08:07:15;;;;;;;;;;;1.20;99.90;;;;;;5089944;28;20274;-77
2023/02/15 08:09:41;;;;;;;;;;;1.30;99.90;;;;;;5091570;28;19927;-77
2023/02/15 08:12:07;;;;;;;;;;;1.30;99.90;;;;;;5091593;28;19919;-77
2023/02/15 08:14:33;;;;;;;;;;;1.30;99.90;;;;;;5089838;28;19908;-77
2023/02/15 08:17:02;;;;;;;;;;;1.40;99.90;;;;;;5077647;28;19966;-77
2023/02/15 08:19:29;;;;;;;;;;;1.40;99.90;;;;;;5077099;28;20361;-77
2023/02/15 08:21:59;;;;;;;;;;;1.40;99.90;;;;;;5086113;28;19916;-78
2023/02/15 08:24:26;;;;;;;;;;;1.50;99.90;;;;;;5082853;28;19916;-77
2023/02/15 08:26:53;;;;;;;;;;;1.50;99.90;;;;;;5088472;28;19912;-78
2023/02/15 08:29:22;;;;;;;;;;;1.50;99.90;;;;;;5086066;28;20304;-77
2023/02/15 08:31:48;;;;;;;;;;;1.50;99.90;;;;;;5080708;28;19916;-78
2023/02/15 08:34:18;;;;;;;;;;;1.60;99.90;;;;;;5079917;28;19916;-77
2023/02/15 08:36:47;;;;;;;;;;;1.60;99.90;;;;;;5075075;28;20388;-77
2023/02/15 08:39:14;;;;;;;;;;;1.60;99.90;;;;;;5080528;28;19919;-77
2023/02/15 08:41:41;;;;;;;;;;;1.60;99.90;;;;;;5081373;28;19920;-77
2023/02/15 08:44:08;;;;;;;;;;;1.60;99.90;;;;;;5112218;27;19912;-77
2023/02/15 08:46:35;;;;;;;;;;;1.60;99.90;;;;;;5078980;28;19912;-77
2023/02/15 08:49:02;;;;;;;;;;;1.60;99.90;;;;;;5102740;28;19916;-77
2023/02/15 08:51:29;;;;;;;;;;;1.60;99.90;;;;;;5122511;27;19916;-77
2023/02/15 08:53:56;;;;;;;;;;;1.70;99.90;;;;;;5077769;28;19908;-78
2023/02/15 08:56:26;;;;;;;;;;;1.60;99.90;;;;;;5084906;28;20288;-77
2023/02/15 08:58:53;;;;;;;;;;;1.60;99.90;;;;;;5082502;28;19926;-77
2023/02/15 09:01:20;;;;;;;;;;;1.60;99.90;;;;;;5083387;28;19920;-77
2023/02/15 09:03:47;;;;;;;;;;;1.60;99.90;;;;;;5087815;28;20387;-77
2023/02/15 09:06:16;;;;;;;;;;;1.60;99.90;;;;;;5084694;28;20365;-77
2023/02/15 09:08:42;;;;;;;;;;;1.60;99.90;;;;;;5085705;28;20376;-77
2023/02/15 09:11:08;;;;;;;;;;;1.60;99.90;;;;;;5080339;28;19912;-77
2023/02/15 09:13:34;;;;;;;;;;;1.50;99.90;;;;;;5100733;27;19927;-77
2023/02/15 09:16:05;;;;;;;;;;;1.50;99.90;;;;;;5097682;27;19959;-77
2023/02/15 09:18:33;;;;;;;;;;;1.50;99.90;;;;;;5083550;28;19916;-77
2023/02/15 09:21:10;;;;;;;;;;;1.50;99.90;;;;;;5081848;28;19923;-77
2023/02/15 09:23:36;;;;;;;;;;;1.60;99.90;;;;;;5114390;27;19912;-77
2023/02/15 09:26:07;;;;;;;;;;;1.50;99.90;;;;;;5094441;28;19912;-76
2023/02/15 09:28:33;;;;;;;;;;;1.50;99.90;;;;;;5087211;28;19916;-76
2023/02/15 09:31:15;;;;;;;;;;;1.40;99.90;;;;;;5086506;28;19916;-77
2023/02/15 09:33:42;;;;;;;;;;;1.40;99.90;;;;;;5089840;28;19924;-76
2023/02/15 09:36:38;;;;;;;;;;;1.40;99.90;;;;;;5083045;28;19913;-77
2023/02/15 09:39:14;;;;;;;;;;;1.40;99.90;;;;;;5074214;28;19913;-76
2023/02/15 09:41:39;;;;;;;;;;;1.40;99.90;;;;;;5085072;28;19923;-76
2023/02/15 09:44:21;;;;;;;;;;;1.40;99.90;;;;;;5082130;28;20014;-76
2023/02/15 09:46:47;;;;;;;;;;;1.50;99.90;;;;;;5098325;27;19920;-77
2023/02/15 09:49:22;;;;;;;;;;;1.50;99.90;;;;;;5109255;27;19912;-78
2023/02/15 09:51:51;;;;;;;;;;;1.40;99.90;;;;;;5118399;27;19916;-76
2023/02/15 09:54:38;;;;;;;;;;;1.40;99.90;;;;;;5091106;28;20365;-77
2023/02/15 09:57:09;;;;;;;;;;;1.50;99.90;;;;;;5092602;28;19939;-76
2023/02/15 09:59:50;;;;;;;;;;;1.50;99.90;;;;;;5093110;28;19928;-76
2023/02/15 10:02:25;;;;;;;;;;;1.50;99.90;;;;;;5082757;28;19928;-77
2023/02/15 10:04:51;;;;;;;;;;;1.40;99.90;;;;;;5089130;28;19923;-77
2023/02/15 10:07:29;;;;;;;;;;;1.40;99.90;;;;;;5082597;28;20137;-76
2023/02/15 10:09:55;;;;;;;;;;;1.40;99.90;;;;;;5090757;28;20361;-76
2023/02/15 10:12:32;;;;;;;;;;;1.40;99.90;;;;;;5083766;28;19908;-77
2023/02/15 10:15:11;;;;;;;;;;;1.40;99.90;;;;;;5088901;28;19912;-77
2023/02/15 10:17:52;;;;;;;;;;;1.50;99.90;;;;;;5099375;28;19913;-77
2023/02/15 10:20:28;;;;;;;;;;;1.40;99.90;;;;;;5082195;28;20413;-77
2023/02/15 10:23:13;;;;;;;;;;;1.40;99.90;;;;;;5087651;28;20280;-77
2023/02/15 10:25:45;;;;;;;;;;;1.40;99.90;;;;;;5082532;28;19912;-76
2023/02/15 10:28:18;;;;;;;;;;;1.50;99.90;;;;;;5083819;28;19916;-76
2023/02/15 10:30:50;;;;;;;;;;;1.40;99.90;;;;;;5078269;28;19928;-76
2023/02/15 10:33:23;;;;;;;;;;;1.50;99.90;;;;;;5081334;28;19917;-76
2023/02/15 10:35:59;;;;;;;;;;;1.50;99.90;;;;;;5094718;27;20365;-76
2023/02/15 10:38:35;;;;;;;;;;;1.60;99.90;;;;;;5079885;28;19917;-76
2023/02/15 10:41:04;;;;;;;;;;;1.70;99.90;;;;;;5080748;28;19919;-76
2023/02/15 10:43:49;;;;;;;;;;;1.60;99.90;;;;;;5080079;28;19908;-76
2023/02/15 10:46:24;;;;;;;;;;;1.70;99.90;;;;;;5088313;28;19913;-76
2023/02/15 10:49:08;;;;;;;;;;;1.70;99.90;;;;;;5079072;28;20400;-76
2023/02/15 10:51:37;;;;;;;;;;;1.60;99.90;;;;;;5084487;28;19920;-76
2023/02/15 10:54:09;;;;;;;;;;;1.70;99.90;;;;;;5080397;28;20361;-76
2023/02/15 10:56:54;;;;;;;;;;;1.70;99.90;;;;;;5088521;28;19920;-76
2023/02/15 10:59:20;;;;;;;;;;;1.80;99.90;;;;;;5082913;28;19912;-75
2023/02/15 11:01:46;;;;;;;;;;;1.80;99.90;;;;;;5099878;28;20315;-76
2023/02/15 11:04:24;;;;;;;;;;;1.60;99.90;;;;;;5086791;28;19939;-76
2023/02/15 11:06:56;;;;;;;;;;;1.60;99.90;;;;;;5096304;28;19912;-76
2023/02/15 11:09:24;;;;;;;;;;;1.60;99.90;;;;;;5079997;28;19935;-76
2023/02/15 11:11:52;;;;;;;;;;;1.60;99.90;;;;;;5094028;28;19919;-77
2023/02/15 11:14:21;;;;;;;;;;;1.60;99.90;;;;;;5076585;28;19944;-76
2023/02/15 11:16:50;;;;;;;;;;;1.80;99.90;;;;;;5085140;28;20353;-76
2023/02/15 11:19:16;;;;;;;;;;;1.90;99.90;;;;;;5080222;28;19915;-76
2023/02/15 11:21:54;;;;;;;;;;;1.90;94.20;;;;;;5088768;28;19912;-76
2023/02/15 11:24:21;;;;;;;;;;;1.90;90.50;;;;;;5091161;27;19917;-77
2023/02/15 11:26:51;;;;;;;;;;;1.80;74.70;;;;;;5086375;28;19912;-76
2023/02/15 11:29:43;;;;;;;;;;;1.70;61.70;;;;;;5076907;28;19916;-76
2023/02/15 11:32:21;;;;;;;;;;;1.70;58.20;;;;;;5086017;28;19917;-76
2023/02/15 11:34:53;;;;;;;;;;;1.80;70.90;;;;;;5104605;27;19991;-76
2023/02/15 11:37:20;;;;;;;;;;;1.80;63.80;;;;;;5086345;28;19916;-76
2023/02/15 11:39:51;;;;;;;;;;;1.70;45.30;;;;;;5084891;28;19912;-76
2023/02/15 11:42:21;;;;;;;;;;;1.70;47.80;;;;;;5079522;28;20293;-75
2023/02/15 11:44:54;;;;;;;;;;;1.70;50.90;;;;;;5075825;28;19919;-76
2023/02/15 11:47:20;;;;;;;;;;;1.70;44.50;;;;;;5088859;28;20197;-76
2023/02/15 11:49:46;;;;;;;;;;;1.70;44.90;;;;;;5076369;28;20296;-76
2023/02/15 11:52:14;;;;;;;;;;;1.80;43.50;;;;;;5084050;28;19923;-77
2023/02/15 11:54:45;;;;;;;;;;;1.80;47.00;;;;;;5112133;27;19931;-74
2023/02/15 11:57:17;;;;;;;;;;;1.90;46.00;;;;;;5074843;28;19912;-74
2023/02/15 11:59:49;;;;;;;;;;;2.00;44.60;;;;;;5080448;28;19912;-74
2023/02/15 12:02:22;;;;;;;;;;;2.00;33.70;;;;;;5076617;28;19920;-73
2023/02/15 12:04:53;;;;;;;;;;;2.00;26.50;;;;;;5091307;28;19916;-75
2023/02/15 12:07:22;;;;;;;;;;;2.10;23.00;;;;;;5084476;28;19916;-74
2023/02/15 12:09:56;;;;;;;;;;;2.20;23.10;;;;;;5090147;28;19919;-76
2023/02/15 12:12:23;;;;;;;;;;;2.30;20.00;;;;;;5080632;28;19920;-76
2023/02/15 12:14:51;;;;;;;;;;;2.40;20.00;;;;;;5086499;28;19912;-75
2023/02/15 12:17:17;;;;;;;;;;;2.40;14.60;;;;;;5082831;28;19913;-75
2023/02/15 12:19:45;;;;;;;;;;;2.50;9.90;;;;;;5083620;28;19912;-76
2023/02/15 12:22:23;;;;;;;;;;;2.40;1.00;;;;;;5095916;28;19912;-75
2023/02/15 12:24:51;;;;;;;;;;;2.40;1.00;;;;;;5093212;28;20345;-75
2023/02/15 12:27:25;;;;;;;;;;;2.50;1.00;;;;;;5075745;28;19942;-75
2023/02/15 12:29:53;;;;;;;;;;;2.60;1.00;;;;;;5084030;28;20356;-75
2023/02/15 12:32:23;;;;;;;;;;;2.80;1.00;;;;;;5084455;28;19916;-75
2023/02/15 12:34:51;;;;;;;;;;;2.90;1.00;;;;;;5089459;28;19925;-76
2023/02/15 12:37:21;;;;;;;;;;;2.80;1.00;;;;;;5097832;28;19935;-76
2023/02/15 12:39:57;;;;;;;;;;;2.70;1.00;;;;;;5085882;28;20292;-76
2023/02/15 12:42:24;;;;;;;;;;;2.60;1.00;;;;;;5085619;28;19999;-72
2023/02/15 12:45:00;;;;;;;;;;;2.60;1.00;;;;;;5083150;28;20297;-76
2023/02/15 12:47:27;;;;;;;;;;;2.60;1.00;;;;;;5079338;28;19912;-76
2023/02/15 12:50:11;;;;;;;;;;;2.60;1.00;;;;;;5081872;28;19931;-76
2023/02/15 12:52:37;;;;;;;;;;;2.70;1.00;;;;;;5080984;28;20273;-76
2023/02/15 12:55:11;;;;;;;;;;;2.80;1.00;;;;;;5095519;28;19915;-75
2023/02/15 12:57:37;;;;;;;;;;;2.80;1.00;;;;;;5093126;28;19935;-75
2023/02/15 13:00:25;;;;;;;;;;;3.00;1.00;;;;;;5083087;28;19908;-76
2023/02/15 13:02:58;;;;;;;;;;;3.00;1.00;;;;;;5084786;28;19931;-75
2023/02/15 13:05:28;;;;;;;;;;;3.20;1.00;;;;;;5089905;28;19916;-75
2023/02/15 13:07:59;;;;;;;;;;;3.20;1.00;;;;;;5083034;28;19913;-76
2023/02/15 13:10:28;;;;;;;;;;;3.30;1.00;;;;;;5080150;28;19921;-76
2023/02/15 13:12:56;;;;;;;;;;;3.30;1.00;;;;;;5089165;28;19912;-76
2023/02/15 13:15:24;;;;;;;;;;;3.10;1.00;;;;;;5080238;28;19912;-76
2023/02/15 13:17:50;;;;;;;;;;;3.10;1.00;;;;;;5091657;28;19919;-76
2023/02/15 13:20:18;;;;;;;;;;;3.10;1.00;;;;;;5083684;28;19935;-77
2023/02/15 13:22:46;;;;;;;;;;;3.10;1.00;;;;;;5082940;28;19939;-76
2023/02/15 13:25:22;;;;;;;;;;;3.10;1.00;;;;;;5085969;28;19912;-76
2023/02/15 13:27:51;;;;;;;;;;;3.20;1.00;;;;;;5088455;28;19947;-76
2023/02/15 13:30:21;;;;;;;;;;;3.20;1.00;;;;;;5084880;28;20387;-77
2023/02/15 13:32:48;;;;;;;;;;;3.10;1.00;;;;;;5091825;28;19924;-76
2023/02/15 13:35:15;;;;;;;;;;;3.10;1.00;;;;;;5092169;28;19936;-76
2023/02/15 13:37:56;;;;;;;;;;;3.30;1.00;;;;;;5087457;28;19908;-76
2023/02/15 13:40:31;;;;;;;;;;;3.30;1.00;;;;;;5086399;28;19919;-76
2023/02/15 13:43:21;;;;;;;;;;;3.10;1.00;;;;;;5083845;28;19923;-76
2023/02/15 13:45:47;;;;;;;;;;;2.90;1.00;;;;;;5083380;28;19913;-76
2023/02/15 13:48:45;;;;;;;;;;;2.70;1.00;;;;;;5093446;28;19952;-77
2023/02/15 13:51:24;;;;;;;;;;;2.70;1.00;;;;;;5063841;28;19920;-77
2023/02/15 13:53:55;;;;;;;;;;;2.80;1.00;;;;;;5125819;27;20004;-75
2023/02/15 13:56:33;;;;;;;;;;;2.80;1.00;;;;;;5084081;28;19919;-76
2023/02/15 13:59:10;;;;;;;;;;;3.00;1.00;;;;;;5080565;28;19916;-75
2023/02/15 14:01:42;;;;;;;;;;;3.10;1.00;;;;;;5094497;28;19920;-76
2023/02/15 14:04:08;;;;;;;;;;;3.00;1.00;;;;;;5079970;28;19923;-75
2023/02/15 14:06:34;;;;;;;;;;;3.00;1.00;;;;;;5085007;28;19909;-75
2023/02/15 14:09:00;;;;;;;;;;;3.00;1.00;;;;;;5079615;28;19920;-75
2023/02/15 14:11:38;;;;;;;;;;;3.10;1.00;;;;;;5080193;28;20373;-75
2023/02/15 14:14:04;;;;;;;;;;;3.20;1.00;;;;;;5081137;28;20004;-77
2023/02/15 14:16:33;;;;;;;;;;;3.20;1.00;;;;;;5094334;27;19919;-77
2023/02/15 14:19:18;;;;;;;;;;;3.30;1.00;;;;;;5083589;28;19912;-77
2023/02/15 14:21:44;;;;;;;;;;;3.40;1.00;;;;;;5086461;28;19917;-75
2023/02/15 14:24:25;;;;;;;;;;;3.50;1.00;;;;;;5091914;28;19923;-76
2023/02/15 14:26:57;;;;;;;;;;;3.60;1.00;;;;;;5091629;28;20374;-75
2023/02/15 14:29:42;;;;;;;;;;;3.70;1.00;;;;;;5084728;28;19923;-75
2023/02/15 14:32:11;;;;;;;;;;;3.70;1.00;;;;;;5091419;28;19920;-77
2023/02/15 14:34:44;;;;;;;;;;;3.70;1.00;;;;;;5079543;28;20345;-75
2023/02/15 14:37:11;;;;;;;;;;;3.70;1.00;;;;;;5092302;28;19920;-76
2023/02/15 14:43:00;;;;;;;;;;;3.60;1.00;;;;;;5077815;28;19923;-74
2023/02/15 14:45:42;;;;;;;;;;;3.60;1.00;;;;;;5084600;28;19920;-75
2023/02/15 14:48:16;;;;;;;;;;;3.70;1.00;;;;;;5085151;28;19913;-75
2023/02/15 14:50:43;;;;;;;;;;;3.70;1.00;;;;;;5081788;28;20372;-74
2023/02/15 14:53:15;;;;;;;;;;;3.70;1.00;;;;;;5087548;28;19924;-74
2023/02/15 14:55:41;;;;;;;;;;;3.70;1.00;;;;;;5081324;28;19913;-74
2023/02/15 14:58:11;;;;;;;;;;;3.60;1.00;;;;;;5080768;28;19916;-75
2023/02/15 15:00:41;;;;;;;;;;;3.50;1.00;;;;;;5082262;28;19916;-74
2023/02/15 15:03:11;;;;;;;;;;;3.60;1.00;;;;;;5089114;28;19916;-75
2023/02/15 15:05:47;;;;;;;;;;;3.60;1.00;;;;;;5085696;28;19920;-75
2023/02/15 15:08:26;;;;;;;;;;;3.60;1.00;;;;;;5120296;27;19912;-74
2023/02/15 15:10:52;;;;;;;;;;;3.40;1.00;;;;;;5067766;28;19924;-74
2023/02/15 15:13:30;;;;;;;;;;;3.40;1.00;;;;;;5079197;28;19919;-74
2023/02/15 15:15:56;;;;;;;;;;;3.50;1.00;;;;;;5082610;28;19919;-74